Time;durP1;ratioP1;P1;durP2;ratioP2;P2;SDS_P1;SDS_P2;PMS_P1;PMS_P2;Temp;Humidity;BMP_temperature;BMP_pressure;BME280_temperature;BME280_humidity;BME280_pressure;Samples;Min_cycle;Max_cycle;Signal;HPM_P1;HPM_P2
2021/12/18 00:00:24;;;;;;;38.28;34.28;;;;;;;;;;12430755;28;20030;-73
2021/12/18 00:06:30;;;;;;;36.85;33.10;;;;;;;;;;12446481;28;20038;-74
2021/12/18 00:12:31;;;;;;;35.55;31.77;;;;;;;;;;12446206;28;20045;-74
2021/12/18 00:18:34;;;;;;;36.58;32.70;;;;;;;;;;12446922;28;20037;-73
2021/12/18 00:24:36;;;;;;;42.17;37.55;;;;;;;;;;12445376;28;20423;-74
2021/12/18 00:30:38;;;;;;;38.97;34.97;;;;;;;;;;12447193;28;20061;-73
2021/12/18 00:36:40;;;;;;;35.05;31.52;;;;;;;;;;12444523;28;20041;-74
2021/12/18 00:42:55;;;;;;;37.63;33.60;;;;;;;;;;12445473;28;20034;-74
2021/12/18 00:48:57;;;;;;;38.90;34.83;;;;;;;;;;12445909;28;20494;-74
2021/12/18 00:55:00;;;;;;;37.28;33.42;;;;;;;;;;12445689;28;20041;-74
2021/12/18 01:01:07;;;;;;;38.00;34.10;;;;;;;;;;12444260;28;20038;-74
2021/12/18 01:07:08;;;;;;;36.40;32.65;;;;;;;;;;12444360;28;20379;-74
2021/12/18 01:13:14;;;;;;;39.35;35.17;;;;;;;;;;12445222;28;20041;-74
2021/12/18 01:25:36;;;;;;;37.90;34.03;;;;;;;;;;12445021;28;20499;-74
2021/12/18 01:31:38;;;;;;;39.90;35.88;;;;;;;;;;12443865;28;20045;-74
2021/12/18 01:37:41;;;;;;;37.03;33.13;;;;;;;;;;12443606;28;20041;-74
2021/12/18 01:44:14;;;;;;;38.22;34.35;;;;;;;;;;12444625;28;20034;-74
2021/12/18 01:56:34;;;;;;;33.30;29.90;;;;;;;;;;12449126;28;20391;-74
2021/12/18 02:02:36;;;;;;;36.55;32.67;;;;;;;;;;12452088;28;20030;-74
2021/12/18 02:08:39;;;;;;;41.33;36.95;;;;;;;;;;12452916;28;20041;-74
2021/12/18 02:21:16;;;;;;;37.78;33.97;;;;;;;;;;12452401;28;20039;-74
2021/12/18 02:27:18;;;;;;;36.33;32.50;;;;;;;;;;12452375;28;20050;-75
2021/12/18 02:33:20;;;;;;;32.75;29.45;;;;;;;;;;12452074;28;20033;-74
2021/12/18 02:45:23;;;;;;;44.78;40.30;;;;;;;;;;12451322;28;20399;-74
2021/12/18 02:51:25;;;;;;;47.53;40.60;;;;;;;;;;12451001;28;20037;-74
2021/12/18 02:57:27;;;;;;;47.10;41.53;;;;;;;;;;12451398;28;20050;-74
2021/12/18 03:03:32;;;;;;;41.88;37.72;;;;;;;;;;12451486;28;20514;-75
2021/12/18 03:28:05;;;;;;;34.58;31.10;;;;;;;;;;12449480;28;20491;-74
2021/12/18 03:34:07;;;;;;;31.45;28.25;;;;;;;;;;12448797;28;20064;-73
2021/12/18 03:40:12;;;;;;;30.70;27.60;;;;;;;;;;12447526;28;20043;-74
2021/12/18 03:46:13;;;;;;;28.02;25.17;;;;;;;;;;12448265;28;20045;-73
2021/12/18 03:52:15;;;;;;;30.23;27.35;;;;;;;;;;12447127;28;20042;-74
2021/12/18 03:58:17;;;;;;;29.45;26.48;;;;;;;;;;12448819;28;20479;-74
2021/12/18 04:04:18;;;;;;;29.63;26.80;;;;;;;;;;12447936;28;20030;-74
2021/12/18 04:10:20;;;;;;;28.15;25.30;;;;;;;;;;12446491;28;20049;-74
2021/12/18 04:16:22;;;;;;;27.15;24.55;;;;;;;;;;12445880;28;20042;-74
2021/12/18 04:22:24;;;;;;;28.98;26.05;;;;;;;;;;12446734;28;20411;-73
2021/12/18 04:28:26;;;;;;;25.65;23.20;;;;;;;;;;12446878;28;20049;-73
2021/12/18 04:34:27;;;;;;;26.80;24.20;;;;;;;;;;12446707;28;20053;-73
2021/12/18 04:40:29;;;;;;;24.42;20.83;;;;;;;;;;12445424;28;20030;-73
2021/12/18 04:46:31;;;;;;;22.95;20.45;;;;;;;;;;12445017;28;20497;-73
2021/12/18 04:52:32;;;;;;;21.58;18.45;;;;;;;;;;12446097;28;20026;-73
2021/12/18 04:58:34;;;;;;;23.85;21.45;;;;;;;;;;12444270;28;20057;-73
2021/12/18 05:04:36;;;;;;;16.95;15.15;;;;;;;;;;12444304;28;20045;-74
2021/12/18 05:10:38;;;;;;;23.35;20.95;;;;;;;;;;12444572;28;20042;-73
2021/12/18 05:16:39;;;;;;;18.80;16.95;;;;;;;;;;12443869;28;20045;-74
2021/12/18 05:22:41;;;;;;;22.60;20.20;;;;;;;;;;12443401;28;20030;-74
2021/12/18 05:28:43;;;;;;;24.88;22.35;;;;;;;;;;12444173;28;20054;-74
2021/12/18 05:34:44;;;;;;;19.92;17.80;;;;;;;;;;12454264;28;20503;-73
2021/12/18 05:40:46;;;;;;;23.08;20.88;;;;;;;;;;12454770;28;20033;-74
2021/12/18 05:46:48;;;;;;;20.73;18.58;;;;;;;;;;12454105;28;20045;-74
2021/12/18 05:52:50;;;;;;;25.10;22.60;;;;;;;;;;12453809;28;20033;-73
2021/12/18 05:58:52;;;;;;;25.95;22.58;;;;;;;;;;12452536;28;20054;-73
2021/12/18 06:04:53;;;;;;;24.25;21.45;;;;;;;;;;12452147;28;20483;-73
2021/12/18 06:10:55;;;;;;;25.08;22.48;;;;;;;;;;12453272;28;20030;-73
2021/12/18 06:16:57;;;;;;;22.67;20.30;;;;;;;;;;12452760;28;20395;-73
2021/12/18 06:22:59;;;;;;;25.23;22.38;;;;;;;;;;12452117;28;20099;-73
2021/12/18 06:29:00;;;;;;;28.02;21.73;;;;;;;;;;12451351;28;20050;-73
2021/12/18 06:35:02;;;;;;;24.80;20.88;;;;;;;;;;12450478;28;20042;-73
2021/12/18 06:41:04;;;;;;;23.98;20.30;;;;;;;;;;12448799;28;20026;-74
2021/12/18 06:47:05;;;;;;;23.23;18.83;;;;;;;;;;12451630;28;20041;-73
2021/12/18 06:53:07;;;;;;;27.58;23.33;;;;;;;;;;12449981;28;20033;-74
2021/12/18 06:59:09;;;;;;;21.00;17.85;;;;;;;;;;12449749;28;20041;-74
2021/12/18 07:05:11;;;;;;;31.00;25.77;;;;;;;;;;12449414;28;20046;-74
2021/12/18 07:11:13;;;;;;;28.03;24.50;;;;;;;;;;12449281;28;20034;-74
2021/12/18 07:17:14;;;;;;;24.80;22.00;;;;;;;;;;12449783;28;20050;-73
2021/12/18 07:23:16;;;;;;;23.42;19.00;;;;;;;;;;12448352;28;20030;-74
2021/12/18 07:29:19;;;;;;;28.42;24.42;;;;;;;;;;12447944;28;20054;-73
2021/12/18 07:35:20;;;;;;;20.00;17.88;;;;;;;;;;12448470;28;20041;-73
2021/12/18 07:41:22;;;;;;;21.70;19.13;;;;;;;;;;12448581;28;20077;-73
2021/12/18 07:47:24;;;;;;;20.98;18.85;;;;;;;;;;12448572;28;20492;-73
2021/12/18 07:53:25;;;;;;;19.38;17.35;;;;;;;;;;12446489;28;20526;-73
2021/12/18 07:59:27;;;;;;;19.15;17.20;;;;;;;;;;12446783;28;20049;-73
2021/12/18 08:05:29;;;;;;;30.10;24.85;;;;;;;;;;12446311;28;20038;-74
2021/12/18 08:11:31;;;;;;;25.52;20.15;;;;;;;;;;12429977;28;20038;-72
2021/12/18 08:17:32;;;;;;;25.90;19.67;;;;;;;;;;12445747;28;20057;-73
2021/12/18 08:23:34;;;;;;;23.20;18.88;;;;;;;;;;12445646;28;20291;-72
2021/12/18 08:29:36;;;;;;;20.10;15.48;;;;;;;;;;12447118;28;20061;-73
2021/12/18 08:35:38;;;;;;;19.57;17.10;;;;;;;;;;12446540;28;20045;-73
2021/12/18 08:41:42;;;;;;;;;;;;;;;;;;12446313;28;20533;-73
2021/12/18 08:47:44;;;;;;;22.63;18.73;;;;;;;;;;12444816;28;19916;-74
2021/12/18 08:53:45;;;;;;;36.78;26.63;;;;;;;;;;12445483;28;20030;-73
2021/12/18 08:59:47;;;;;;;35.78;28.20;;;;;;;;;;12446854;28;20037;-73
2021/12/18 09:05:49;;;;;;;30.58;24.88;;;;;;;;;;12444751;28;20482;-75
2021/12/18 09:11:50;;;;;;;48.22;35.50;;;;;;;;;;12443884;28;20034;-73
2021/12/18 09:17:52;;;;;;;32.35;25.17;;;;;;;;;;12445200;28;20038;-74
2021/12/18 09:23:54;;;;;;;37.45;29.13;;;;;;;;;;12445336;28;20494;-74
2021/12/18 09:29:56;;;;;;;26.27;22.83;;;;;;;;;;12445542;28;20057;-73
2021/12/18 09:35:57;;;;;;;24.50;19.55;;;;;;;;;;12444110;28;20081;-74
2021/12/18 09:41:59;;;;;;;24.73;20.38;;;;;;;;;;12445052;28;20040;-74
2021/12/18 09:48:01;;;;;;;27.95;21.38;;;;;;;;;;12443299;28;20030;-74
2021/12/18 09:54:02;;;;;;;35.10;26.38;;;;;;;;;;12444296;28;20034;-74
2021/12/18 10:00:06;;;;;;;28.45;19.85;;;;;;;;;;12443648;28;20038;-74
2021/12/18 10:06:33;;;;;;;34.17;25.25;;;;;;;;;;12444465;28;20041;-74
2021/12/18 10:12:35;;;;;;;39.70;27.77;;;;;;;;;;12444240;28;20502;-74
2021/12/18 10:18:37;;;;;;;37.13;24.30;;;;;;;;;;12449615;28;20044;-73
2021/12/18 10:24:43;;;;;;;43.72;26.60;;;;;;;;;;12451516;28;20391;-74
2021/12/18 10:30:47;;;;;;;65.13;30.98;;;;;;;;;;12451218;28;20058;-74
2021/12/18 10:37:07;;;;;;;37.65;22.75;;;;;;;;;;12452394;28;20510;-74
2021/12/18 10:43:09;;;;;;;32.95;21.75;;;;;;;;;;12450371;28;20040;-74
2021/12/18 10:49:12;;;;;;;38.90;23.88;;;;;;;;;;12450116;28;20045;-74
2021/12/18 10:55:14;;;;;;;;;;;;;;;;;;12450279;28;20045;-74
2021/12/18 11:01:16;;;;;;;32.08;19.98;;;;;;;;;;12449933;28;19920;-73
2021/12/18 11:07:19;;;;;;;74.33;28.60;;;;;;;;;;12449565;28;20030;-74
2021/12/18 11:13:45;;;;;;;55.30;25.92;;;;;;;;;;12448736;28;20033;-73
2021/12/18 11:19:47;;;;;;;40.53;22.60;;;;;;;;;;12449012;28;20510;-73
2021/12/18 11:25:52;;;;;;;42.40;27.50;;;;;;;;;;12449480;28;20057;-73
2021/12/18 11:31:55;;;;;;;32.80;21.15;;;;;;;;;;12448604;28;20068;-74
2021/12/18 11:38:00;;;;;;;18.80;12.70;;;;;;;;;;12448441;28;20053;-73
2021/12/18 11:44:04;;;;;;;28.83;18.48;;;;;;;;;;12449083;28;20304;-73
2021/12/18 11:50:18;;;;;;;22.00;14.75;;;;;;;;;;12447128;28;20387;-73
2021/12/18 11:56:20;;;;;;;25.80;14.73;;;;;;;;;;12447286;28;20041;-74
2021/12/18 12:02:41;;;;;;;18.80;12.60;;;;;;;;;;12446949;28;20034;-74
2021/12/18 12:08:43;;;;;;;18.85;13.00;;;;;;;;;;12447719;28;20383;-74
2021/12/18 12:14:45;;;;;;;44.72;26.10;;;;;;;;;;12446058;28;20483;-73
2021/12/18 12:20:47;;;;;;;24.50;16.50;;;;;;;;;;12446119;28;20034;-73
2021/12/18 12:26:49;;;;;;;20.80;13.65;;;;;;;;;;12445864;28;20056;-72
2021/12/18 12:32:58;;;;;;;15.98;11.25;;;;;;;;;;12445493;28;20034;-72
2021/12/18 12:39:01;;;;;;;18.08;13.05;;;;;;;;;;12445330;28;20409;-73
2021/12/18 12:45:09;;;;;;;16.33;10.90;;;;;;;;;;12444905;28;20029;-73
2021/12/18 12:51:11;;;;;;;13.98;10.10;;;;;;;;;;12445926;28;20041;-73
2021/12/18 12:57:22;;;;;;;17.90;12.57;;;;;;;;;;12446028;28;20050;-73
2021/12/18 13:03:28;;;;;;;27.13;18.70;;;;;;;;;;12444726;28;20064;-74
2021/12/18 13:09:30;;;;;;;19.90;12.18;;;;;;;;;;12445596;28;20040;-74
2021/12/18 13:15:50;;;;;;;19.88;13.50;;;;;;;;;;12445259;28;20042;-74
2021/12/18 13:21:52;;;;;;;14.25;9.15;;;;;;;;;;12444003;28;20033;-74
2021/12/18 13:28:06;;;;;;;15.85;10.98;;;;;;;;;;12445102;28;20053;-74
2021/12/18 13:34:09;;;;;;;14.52;11.38;;;;;;;;;;12443479;28;20321;-74
2021/12/18 13:40:11;;;;;;;;;;;;;;;;;;12445451;28;20413;-73
2021/12/18 13:46:13;;;;;;;11.60;8.90;;;;;;;;;;12444766;28;19909;-73
2021/12/18 13:52:34;;;;;;;12.02;9.73;;;;;;;;;;12448682;28;20041;-73
2021/12/18 13:58:37;;;;;;;15.80;10.73;;;;;;;;;;12454607;28;20037;-73
2021/12/18 14:04:41;;;;;;;15.30;10.52;;;;;;;;;;12453356;28;20042;-73
2021/12/18 14:10:43;;;;;;;11.68;9.63;;;;;;;;;;12435870;28;20037;-73
2021/12/18 14:16:49;;;;;;;11.13;7.97;;;;;;;;;;12452780;28;20049;-74
2021/12/18 14:22:53;;;;;;;13.60;9.20;;;;;;;;;;12451304;28;20044;-74
2021/12/18 14:28:56;;;;;;;16.83;11.18;;;;;;;;;;12434707;28;20499;-74
2021/12/18 14:35:04;;;;;;;15.77;10.55;;;;;;;;;;12452023;28;20280;-74
2021/12/18 14:41:06;;;;;;;16.27;11.50;;;;;;;;;;12433803;28;20046;-74
2021/12/18 14:47:10;;;;;;;17.67;11.63;;;;;;;;;;12451118;28;20038;-74
2021/12/18 14:53:13;;;;;;;15.18;10.00;;;;;;;;;;12450011;28;20038;-74
2021/12/18 14:59:16;;;;;;;17.90;12.93;;;;;;;;;;12450834;28;20046;-74
2021/12/18 15:05:17;;;;;;;14.13;10.50;;;;;;;;;;12432102;28;20162;-74
2021/12/18 15:11:19;;;;;;;14.30;10.40;;;;;;;;;;12448978;28;20034;-74
2021/12/18 15:17:21;;;;;;;14.20;10.18;;;;;;;;;;12450053;28;20052;-74
2021/12/18 15:23:23;;;;;;;21.20;13.88;;;;;;;;;;12449929;28;20038;-73
2021/12/18 15:29:26;;;;;;;18.55;11.85;;;;;;;;;;12449416;28;20042;-73
2021/12/18 15:35:27;;;;;;;;;;;;;;;;;;12449988;28;20411;-74
2021/12/18 15:41:30;;;;;;;22.13;13.85;;;;;;;;;;12449646;28;19910;-74
2021/12/18 15:47:31;;;;;;;21.52;15.52;;;;;;;;;;12448451;28;20041;-74
2021/12/18 15:53:33;;;;;;;18.70;13.20;;;;;;;;;;12447263;28;20502;-74
2021/12/18 15:59:35;;;;;;;18.85;14.02;;;;;;;;;;12447209;28;20042;-73
2021/12/18 16:05:39;;;;;;;20.25;13.55;;;;;;;;;;12446956;28;20034;-74
2021/12/18 16:11:41;;;;;;;23.23;16.10;;;;;;;;;;12447551;28;20064;-74
2021/12/18 16:17:43;;;;;;;14.00;11.30;;;;;;;;;;12447146;28;20038;-75
2021/12/18 16:23:45;;;;;;;20.92;14.13;;;;;;;;;;12446170;28;20045;-72
2021/12/18 16:29:47;;;;;;;15.35;12.95;;;;;;;;;;12445419;28;20072;-73
2021/12/18 16:35:51;;;;;;;15.00;12.25;;;;;;;;;;12446465;28;20054;-74
2021/12/18 16:41:53;;;;;;;15.15;11.70;;;;;;;;;;12445605;28;20026;-73
2021/12/18 16:47:54;;;;;;;14.10;10.45;;;;;;;;;;12446186;28;20037;-72
2021/12/18 16:53:56;;;;;;;16.90;13.75;;;;;;;;;;12445175;28;20030;-72
2021/12/18 16:59:58;;;;;;;15.32;12.43;;;;;;;;;;12428090;28;20054;-73
2021/12/18 17:05:59;;;;;;;12.23;9.95;;;;;;;;;;12445768;28;20037;-74
2021/12/18 17:12:01;;;;;;;15.35;13.20;;;;;;;;;;12444256;28;20033;-74
2021/12/18 17:18:03;;;;;;;14.00;12.38;;;;;;;;;;12443983;28;20049;-74
2021/12/18 17:24:06;;;;;;;13.98;12.50;;;;;;;;;;12445213;28;20037;-73
2021/12/18 17:30:09;;;;;;;17.25;14.05;;;;;;;;;;12453106;28;20046;-72
2021/12/18 17:36:11;;;;;;;16.50;12.60;;;;;;;;;;12453703;28;20057;-75
2021/12/18 17:42:13;;;;;;;15.18;13.38;;;;;;;;;;12454851;28;20026;-75
2021/12/18 17:48:14;;;;;;;14.57;13.05;;;;;;;;;;12453414;28;20030;-75
2021/12/18 17:54:16;;;;;;;22.13;18.02;;;;;;;;;;12455829;28;20367;-73
2021/12/18 18:00:28;;;;;;;18.40;16.48;;;;;;;;;;12453199;28;20053;-74
2021/12/18 18:06:30;;;;;;;19.77;17.10;;;;;;;;;;12452969;28;20037;-73
2021/12/18 18:12:32;;;;;;;38.25;24.55;;;;;;;;;;12452327;28;20025;-73
2021/12/18 18:18:34;;;;;;;17.95;15.63;;;;;;;;;;12453465;28;20037;-73
2021/12/18 18:24:35;;;;;;;15.57;13.77;;;;;;;;;;12452920;28;20030;-74
2021/12/18 18:30:37;;;;;;;21.13;17.80;;;;;;;;;;12452602;28;20053;-74
2021/12/18 18:36:39;;;;;;;17.30;15.45;;;;;;;;;;12451727;28;20053;-73
2021/12/18 18:42:42;;;;;;;15.40;13.80;;;;;;;;;;12452091;28;20030;-73
2021/12/18 18:48:45;;;;;;;19.30;17.25;;;;;;;;;;12450472;28;20399;-74
2021/12/18 18:54:47;;;;;;;19.35;17.33;;;;;;;;;;12450130;28;20034;-74
2021/12/18 19:00:49;;;;;;;16.98;15.27;;;;;;;;;;12449819;28;20046;-73
2021/12/18 19:06:50;;;;;;;28.27;19.67;;;;;;;;;;12449381;28;20030;-75
2021/12/18 19:12:52;;;;;;;38.15;24.42;;;;;;;;;;12450487;28;20494;-75
2021/12/18 19:19:01;;;;;;;34.70;21.33;;;;;;;;;;12450029;28;20052;-73
2021/12/18 19:25:05;;;;;;;22.15;19.13;;;;;;;;;;12449830;28;20026;-74
2021/12/18 19:31:07;;;;;;;20.80;17.38;;;;;;;;;;12449007;28;20053;-74
2021/12/18 19:37:08;;;;;;;17.58;15.13;;;;;;;;;;12448895;28;20491;-74
2021/12/18 19:43:10;;;;;;;20.23;17.92;;;;;;;;;;12447910;28;20033;-73
2021/12/18 19:49:12;;;;;;;18.03;16.10;;;;;;;;;;12448295;28;20398;-73
2021/12/18 19:55:14;;;;;;;24.52;21.05;;;;;;;;;;12447200;28;20467;-73
2021/12/18 20:01:16;;;;;;;76.15;33.35;;;;;;;;;;12448146;28;20022;-73
2021/12/18 20:07:17;;;;;;;23.42;21.02;;;;;;;;;;12446652;28;20034;-73
2021/12/18 20:13:19;;;;;;;54.67;23.67;;;;;;;;;;12446675;28;20038;-74
2021/12/18 20:19:21;;;;;;;16.98;15.20;;;;;;;;;;12447430;28;20038;-72
2021/12/18 20:25:23;;;;;;;17.80;15.90;;;;;;;;;;12447582;28;20037;-73
2021/12/18 20:31:24;;;;;;;27.37;19.10;;;;;;;;;;12445962;28;20038;-73
2021/12/18 20:37:26;;;;;;;19.98;18.00;;;;;;;;;;12447298;28;20392;-72
2021/12/18 20:43:28;;;;;;;17.73;15.63;;;;;;;;;;12445361;28;20038;-73
2021/12/18 20:49:30;;;;;;;18.95;16.52;;;;;;;;;;12446164;28;20034;-76
2021/12/18 20:55:34;;;;;;;19.33;15.43;;;;;;;;;;12446344;28;20097;-74
2021/12/18 21:01:36;;;;;;;18.67;16.73;;;;;;;;;;12445145;28;20045;-75
2021/12/18 21:07:46;;;;;;;20.77;18.08;;;;;;;;;;12444456;28;20037;-74
2021/12/18 21:13:49;;;;;;;18.27;16.38;;;;;;;;;;12428127;28;20030;-74
2021/12/18 21:19:53;;;;;;;19.25;17.30;;;;;;;;;;12445413;28;20052;-74
2021/12/18 21:25:54;;;;;;;21.45;18.27;;;;;;;;;;12427860;28;20428;-74
2021/12/18 21:31:56;;;;;;;17.13;15.40;;;;;;;;;;12444596;28;20042;-73
2021/12/18 21:37:58;;;;;;;13.68;12.27;;;;;;;;;;12444060;28;20411;-74
2021/12/18 21:44:00;;;;;;;12.25;11.00;;;;;;;;;;12445222;28;20034;-73
2021/12/18 21:50:02;;;;;;;15.00;12.68;;;;;;;;;;12445673;28;20040;-73
2021/12/18 21:56:04;;;;;;;14.60;13.20;;;;;;;;;;12443584;28;20041;-74
2021/12/18 22:02:06;;;;;;;16.42;12.23;;;;;;;;;;12443342;28;20034;-73
2021/12/18 22:08:09;;;;;;;14.50;12.60;;;;;;;;;;12443270;28;20038;-73
2021/12/18 22:14:15;;;;;;;25.63;17.40;;;;;;;;;;12448468;28;20034;-75
2021/12/18 22:20:17;;;;;;;19.08;14.60;;;;;;;;;;12453134;28;20045;-73
2021/12/18 22:26:19;;;;;;;18.13;13.60;;;;;;;;;;12452236;28;20049;-73
2021/12/18 22:32:21;;;;;;;11.80;10.55;;;;;;;;;;12451646;28;20033;-73
2021/12/18 22:38:23;;;;;;;14.23;12.73;;;;;;;;;;12451076;28;20034;-74
2021/12/18 22:44:24;;;;;;;14.55;13.13;;;;;;;;;;12450960;28;20053;-74
2021/12/18 22:50:27;;;;;;;29.70;18.08;;;;;;;;;;12450318;28;20033;-73
2021/12/18 22:56:28;;;;;;;18.83;12.50;;;;;;;;;;12450335;28;20057;-73
2021/12/18 23:02:30;;;;;;;21.50;14.90;;;;;;;;;;12450956;28;20038;-74
2021/12/18 23:08:33;;;;;;;14.80;13.30;;;;;;;;;;12450719;28;20037;-73
2021/12/18 23:20:42;;;;;;;14.32;12.55;;;;;;;;;;12450373;28;20045;-73
2021/12/18 23:26:46;;;;;;;14.27;12.88;;;;;;;;;;12447741;28;20064;-73
2021/12/18 23:32:48;;;;;;;13.73;12.52;;;;;;;;;;12448670;28;20476;-73
2021/12/18 23:38:50;;;;;;;12.85;11.18;;;;;;;;;;12447846;28;20042;-73
2021/12/18 23:51:11;;;;;;;10.60;9.57;;;;;;;;;;12448966;28;20421;-73
2021/12/18 23:57:13;;;;;;;13.10;11.85;;;;;;;;;;12447780;28;20042;-74
